TAIP08 YCBG-YCBG
Flight info
| Callsign | TAIP08 |
|---|---|
| Flight time | 0h 1m |
| Altitude | 2500 |
| Route | VFR |
| Aircraft | EC35/L-VGD/C |
Departure
| Time | 2026-04-23 09:53 |
|---|---|
| Airport | Cambridge Aerodrome (YCBG) |
Arrival
| Time | 2026-04-23 09:54 |
|---|---|
| Airport | Cambridge Aerodrome (YCBG) |
| Time | Latitude | Longitude | Altitude | Speed | Heading |
|---|---|---|---|---|---|
| 2026-04-23 09:47 | -42.82931 | 147.47513 | 38 ft | 0 kts | 283° |
| 2026-04-23 09:50 | -42.82930 | 147.47512 | 38 ft | 0 kts | 285° |
| 2026-04-23 09:50 | -42.82932 | 147.47520 | 47 ft | 5 kts | 76° |
| 2026-04-23 09:50 | -42.82921 | 147.47574 | 45 ft | 6 kts | 14° |
| 2026-04-23 09:51 | -42.82896 | 147.47619 | 49 ft | 10 kts | 92° |
| 2026-04-23 09:51 | -42.82916 | 147.47724 | 49 ft | 12 kts | 92° |
| 2026-04-23 09:51 | -42.82925 | 147.47835 | 54 ft | 12 kts | 120° |
| 2026-04-23 09:51 | -42.82905 | 147.47917 | 54 ft | 14 kts | 348° |
| 2026-04-23 09:52 | -42.82849 | 147.47788 | 124 ft | 19 kts | 282° |
| 2026-04-23 09:52 | -42.82812 | 147.47557 | 272 ft | 28 kts | 280° |
| 2026-04-23 09:52 | -42.82816 | 147.47177 | 419 ft | 51 kts | 226° |
| 2026-04-23 09:52 | -42.83127 | 147.46947 | 639 ft | 58 kts | 161° |
| 2026-04-23 09:53 | -42.83429 | 147.47308 | 683 ft | 65 kts | 96° |
| 2026-04-23 09:53 | -42.83425 | 147.47955 | 547 ft | 74 kts | 70° |
| 2026-04-23 09:53 | -42.83339 | 147.48590 | 511 ft | 56 kts | 69° |
| 2026-04-23 09:53 | -42.83307 | 147.48944 | 423 ft | 59 kts | 78° |
| 2026-04-23 09:54 | -42.83079 | 147.49583 | 277 ft | 58 kts | 38° |
| 2026-04-23 09:54 | -42.82842 | 147.49734 | 195 ft | 58 kts | 347° |
| 2026-04-23 09:54 | -42.82611 | 147.49410 | 94 ft | 44 kts | 251° |
| 2026-04-23 09:54 | -42.82806 | 147.49378 | 28 ft | 31 kts | 146° |
| 2026-04-23 09:55 | -42.82841 | 147.49481 | 14 ft | 2 kts | 291° |
| 2026-04-23 09:55 | -42.82840 | 147.49481 | 15 ft | 0 kts | 261° |
| 2026-04-23 09:57 | -42.82832 | 147.49431 | 20 ft | 12 kts | 237° |
| 2026-04-23 09:57 | -42.82556 | 147.49497 | 8 ft | 48 kts | 280° |
| 2026-04-23 09:58 | -42.82545 | 147.49575 | 17 ft | 0 kts | 40° |